createdAt,value
2023-01-08T00:02:08.720Z,98.58
2023-01-08T00:04:35.221Z,98.56
2023-01-08T00:07:01.873Z,98.50
2023-01-08T00:09:28.376Z,98.32
2023-01-08T00:11:54.893Z,98.42
2023-01-08T00:14:21.419Z,98.57
2023-01-08T00:16:47.984Z,98.47
2023-01-08T00:19:14.656Z,98.72
2023-01-08T00:21:41.169Z,98.81
2023-01-08T00:24:07.778Z,98.71
2023-01-08T00:26:34.361Z,98.71
2023-01-08T00:29:00.943Z,98.63
2023-01-08T00:31:27.422Z,98.78
2023-01-08T00:33:53.952Z,98.83
2023-01-08T00:36:20.507Z,98.90
2023-01-08T00:38:47.344Z,98.69
2023-01-08T00:41:14.554Z,98.86
2023-01-08T00:43:41.105Z,98.71
2023-01-08T00:46:08.197Z,98.82
2023-01-08T00:48:38.754Z,98.87
2023-01-08T00:51:06.071Z,98.75
2023-01-08T00:53:32.890Z,98.46
2023-01-08T00:55:59.971Z,98.62
2023-01-08T00:58:26.515Z,98.46
2023-01-08T01:00:53.034Z,98.20
2023-01-08T01:03:19.554Z,98.10
2023-01-08T01:05:46.054Z,97.80
2023-01-08T01:08:12.639Z,97.48
2023-01-08T01:10:39.765Z,97.50
2023-01-08T01:13:06.821Z,97.44
2023-01-08T01:15:33.354Z,97.46
2023-01-08T01:17:59.787Z,97.45
2023-01-08T01:20:26.327Z,97.27
2023-01-08T01:22:52.882Z,97.41
2023-01-08T01:25:19.537Z,97.34
2023-01-08T01:27:45.979Z,97.22
2023-01-08T01:30:12.699Z,97.32
2023-01-08T01:32:39.194Z,97.10
2023-01-08T01:35:05.990Z,97.10
2023-01-08T01:37:32.956Z,97.15
2023-01-08T01:39:59.555Z,97.20
2023-01-08T01:42:41.368Z,97.33
2023-01-08T01:45:22.595Z,97.32
2023-01-08T01:48:10.516Z,97.54
2023-01-08T01:50:40.055Z,97.30
2023-01-08T01:53:06.525Z,97.63
2023-01-08T01:55:34.383Z,97.74
2023-01-08T01:58:08.555Z,97.78
2023-01-08T02:00:35.635Z,97.76
2023-01-08T02:03:02.455Z,97.91
2023-01-08T02:05:34.837Z,98.04
2023-01-08T02:08:08.527Z,98.03
2023-01-08T02:11:04.325Z,97.85
2023-01-08T02:13:33.722Z,98.01
2023-01-08T02:16:14.148Z,97.82
2023-01-08T02:18:43.409Z,97.95
2023-01-08T02:21:17.344Z,97.80
2023-01-08T02:23:49.412Z,97.68
2023-01-08T02:26:22.010Z,97.96
2023-01-08T02:28:51.525Z,97.79
2023-01-08T02:31:19.393Z,98.17
2023-01-08T02:33:46.043Z,98.44
2023-01-08T02:36:18.443Z,98.35
2023-01-08T02:38:55.410Z,98.91
2023-01-08T02:41:25.253Z,99.27
2023-01-08T02:43:53.931Z,99.48
2023-01-08T02:46:24.003Z,99.38
2023-01-08T02:48:57.081Z,99.73
2023-01-08T02:51:35.273Z,99.85
2023-01-08T02:54:07.275Z,99.90
2023-01-08T02:56:36.282Z,100.00
2023-01-08T02:59:05.379Z,100.00
2023-01-08T03:01:33.700Z,100.00
2023-01-08T03:04:03.568Z,100.00
2023-01-08T03:06:30.779Z,100.00
2023-01-08T03:08:59.084Z,100.00
2023-01-08T03:11:30.121Z,100.00
2023-01-08T03:14:02.854Z,100.00
2023-01-08T03:16:40.951Z,100.00
2023-01-08T03:19:13.866Z,100.00
2023-01-08T03:21:41.462Z,100.00
2023-01-08T03:24:08.601Z,100.00
2023-01-08T03:26:36.473Z,100.00
2023-01-08T03:29:05.043Z,100.00
2023-01-08T03:31:34.619Z,100.00
2023-01-08T03:34:02.572Z,100.00
2023-01-08T03:36:30.065Z,100.00
2023-01-08T03:38:59.552Z,99.99
2023-01-08T03:41:28.106Z,100.00
2023-01-08T03:43:54.641Z,99.98
2023-01-08T03:46:24.246Z,100.00
2023-01-08T03:48:51.303Z,100.00
2023-01-08T03:51:18.961Z,100.00
2023-01-08T03:53:47.287Z,99.79
2023-01-08T03:56:13.918Z,99.69
2023-01-08T03:58:40.847Z,99.47
2023-01-08T04:01:07.457Z,99.17
2023-01-08T04:03:33.952Z,99.10
2023-01-08T04:06:00.707Z,99.08
2023-01-08T04:08:27.290Z,98.90
2023-01-08T04:10:53.808Z,98.78
2023-01-08T04:13:20.394Z,98.48
2023-01-08T04:15:50.722Z,98.53
2023-01-08T04:18:18.150Z,98.59
2023-01-08T04:20:48.015Z,98.48
2023-01-08T04:23:15.098Z,98.34
2023-01-08T04:25:41.583Z,98.54
2023-01-08T04:28:08.127Z,99.46
2023-01-08T04:30:34.613Z,99.39
2023-01-08T04:33:01.120Z,99.27
2023-01-08T04:35:27.655Z,98.97
2023-01-08T04:37:54.162Z,98.84
2023-01-08T04:40:20.626Z,98.79
2023-01-08T04:42:47.137Z,98.96
2023-01-08T04:45:13.664Z,98.77
2023-01-08T04:47:40.139Z,98.63
2023-01-08T04:50:06.802Z,98.76
2023-01-08T04:52:33.295Z,98.73
2023-01-08T04:54:59.911Z,99.23
2023-01-08T04:57:26.433Z,99.38
2023-01-08T04:59:52.925Z,99.28
2023-01-08T05:02:19.729Z,99.17
2023-01-08T05:04:47.696Z,99.00
2023-01-08T05:07:14.440Z,98.90
2023-01-08T05:09:40.925Z,98.79
2023-01-08T05:12:07.418Z,98.95
2023-01-08T05:14:33.906Z,98.95
2023-01-08T05:17:00.415Z,98.89
2023-01-08T05:19:26.968Z,99.22
2023-01-08T05:21:59.593Z,99.37
2023-01-08T05:24:26.067Z,99.56
2023-01-08T05:26:52.602Z,99.49
2023-01-08T05:29:19.179Z,100.00
2023-01-08T05:31:45.992Z,100.00
2023-01-08T05:34:12.512Z,100.00
2023-01-08T05:36:38.987Z,99.89
2023-01-08T05:39:05.437Z,100.00
2023-01-08T05:41:32.023Z,99.88
2023-01-08T05:43:58.490Z,99.29
2023-01-08T05:46:25.040Z,99.31
2023-01-08T05:48:51.684Z,99.36
2023-01-08T05:51:18.223Z,99.19
2023-01-08T05:53:44.799Z,99.48
2023-01-08T05:56:11.942Z,99.44
2023-01-08T05:58:38.926Z,99.43
2023-01-08T06:01:06.797Z,99.52
2023-01-08T06:03:33.435Z,99.84
2023-01-08T06:06:01.030Z,99.92
2023-01-08T06:08:28.322Z,99.87
2023-01-08T06:10:54.995Z,99.83
2023-01-08T06:13:21.565Z,99.72
2023-01-08T06:15:48.208Z,99.66
2023-01-08T06:18:14.809Z,99.91
2023-01-08T06:20:41.362Z,99.66
2023-01-08T06:23:09.037Z,99.70
2023-01-08T06:25:35.955Z,99.68
2023-01-08T06:28:02.866Z,99.75
2023-01-08T06:30:29.417Z,99.63
2023-01-08T06:32:59.229Z,99.63
2023-01-08T06:35:26.623Z,99.76
2023-01-08T06:37:55.247Z,99.72
2023-01-08T06:40:21.928Z,99.66
2023-01-08T06:42:48.397Z,99.67
2023-01-08T06:45:14.975Z,99.59
2023-01-08T06:47:41.513Z,99.51
2023-01-08T06:50:08.224Z,99.32
2023-01-08T06:52:34.963Z,99.35
2023-01-08T06:55:01.435Z,98.94
2023-01-08T06:57:27.946Z,98.90
2023-01-08T06:59:54.375Z,99.00
2023-01-08T07:02:22.387Z,98.84
2023-01-08T07:04:50.505Z,98.58
2023-01-08T07:07:16.991Z,98.49
2023-01-08T07:09:43.470Z,98.56
2023-01-08T07:12:13.811Z,98.42
2023-01-08T07:14:40.501Z,98.39
2023-01-08T07:17:07.457Z,98.47
2023-01-08T07:19:34.219Z,98.36
2023-01-08T07:22:00.809Z,98.20
2023-01-08T07:24:27.309Z,98.24
2023-01-08T07:26:53.769Z,98.07
2023-01-08T07:29:20.372Z,97.95
2023-01-08T07:31:46.901Z,98.12
2023-01-08T07:34:15.262Z,98.25
2023-01-08T07:36:41.914Z,98.36
2023-01-08T07:39:08.417Z,98.17
2023-01-08T07:41:34.906Z,98.22
2023-01-08T07:44:01.557Z,98.55
2023-01-08T07:46:28.225Z,98.55
2023-01-08T07:48:55.806Z,98.55
2023-01-08T07:51:22.397Z,98.67
2023-01-08T07:53:48.928Z,98.58
2023-01-08T07:56:15.461Z,98.50
2023-01-08T07:58:41.914Z,98.44
2023-01-08T08:01:10.122Z,98.76
2023-01-08T08:03:37.989Z,98.75
2023-01-08T08:06:04.730Z,99.00
2023-01-08T08:08:31.176Z,99.12
2023-01-08T08:10:57.667Z,99.04
2023-01-08T08:13:24.111Z,98.94
2023-01-08T08:15:50.695Z,98.94
2023-01-08T08:18:17.514Z,99.06
2023-01-08T08:20:44.042Z,99.01
2023-01-08T08:23:15.479Z,99.19
2023-01-08T08:25:42.708Z,99.16
2023-01-08T08:28:10.727Z,99.20
2023-01-08T08:30:37.780Z,99.39
2023-01-08T08:33:06.314Z,99.43
2023-01-08T08:35:33.621Z,99.22
2023-01-08T08:38:00.347Z,99.23
2023-01-08T08:40:27.335Z,99.05
2023-01-08T08:42:57.984Z,99.04
2023-01-08T08:45:24.867Z,99.08
2023-01-08T08:47:51.660Z,99.05
2023-01-08T08:50:18.524Z,99.02
2023-01-08T08:52:45.942Z,98.57
2023-01-08T08:55:17.328Z,98.99
2023-01-08T08:57:44.332Z,98.54
2023-01-08T09:00:11.164Z,98.16
2023-01-08T09:02:37.822Z,98.01
2023-01-08T09:05:04.776Z,97.95
2023-01-08T09:07:31.283Z,97.98
2023-01-08T09:09:57.995Z,97.89
2023-01-08T09:12:24.529Z,97.68
2023-01-08T09:14:51.837Z,97.65
2023-01-08T09:17:18.525Z,97.54
2023-01-08T09:19:45.105Z,97.40
2023-01-08T09:22:11.704Z,97.31
2023-01-08T09:24:38.201Z,97.31
2023-01-08T09:27:04.818Z,97.06
2023-01-08T09:29:31.396Z,96.84
2023-01-08T09:32:00.627Z,96.26
2023-01-08T09:34:27.422Z,95.90
2023-01-08T09:36:54.219Z,95.60
2023-01-08T09:39:20.867Z,95.22
2023-01-08T09:41:47.724Z,95.00
2023-01-08T09:44:17.457Z,94.59
2023-01-08T09:46:44.350Z,94.25
2023-01-08T09:49:17.036Z,94.18
2023-01-08T09:51:43.730Z,93.99
2023-01-08T09:54:13.402Z,93.72
2023-01-08T09:56:39.968Z,93.63
2023-01-08T09:59:06.616Z,93.45
2023-01-08T10:01:38.475Z,93.32
2023-01-08T10:04:14.229Z,93.20
2023-01-08T10:06:41.330Z,93.12
2023-01-08T10:09:12.842Z,92.94
2023-01-08T10:11:42.403Z,92.77
2023-01-08T10:14:19.113Z,92.78
2023-01-08T10:16:47.530Z,92.52
2023-01-08T10:19:14.039Z,92.48
2023-01-08T10:21:41.367Z,92.43
2023-01-08T10:24:08.237Z,92.48
2023-01-08T10:26:39.478Z,92.52
2023-01-08T10:29:06.917Z,92.43
2023-01-08T10:31:33.601Z,92.49
2023-01-08T10:34:08.081Z,92.41
2023-01-08T10:36:39.216Z,92.43
2023-01-08T10:39:06.335Z,92.10
2023-01-08T10:41:37.698Z,91.97
2023-01-08T10:44:06.401Z,92.07
2023-01-08T10:46:35.911Z,91.55
2023-01-08T10:49:04.508Z,91.44
2023-01-08T10:51:32.325Z,91.24
2023-01-08T10:54:01.168Z,91.08
2023-01-08T10:56:29.837Z,91.12
2023-01-08T10:58:56.875Z,90.75
2023-01-08T11:01:28.843Z,90.41
2023-01-08T11:04:03.652Z,90.69
2023-01-08T11:06:31.835Z,90.93
2023-01-08T11:08:59.972Z,91.06
2023-01-08T11:11:32.617Z,90.65
2023-01-08T11:14:00.389Z,90.33
2023-01-08T11:16:31.605Z,90.04
2023-01-08T11:18:58.321Z,89.96
2023-01-08T11:21:31.612Z,90.07
2023-01-08T11:24:18.079Z,90.12
2023-01-08T11:26:48.684Z,90.04
2023-01-08T11:29:17.940Z,89.50
2023-01-08T11:32:10.884Z,88.96
2023-01-08T11:34:45.264Z,88.33
2023-01-08T11:37:19.843Z,87.52
2023-01-08T11:39:46.492Z,87.17
2023-01-08T11:42:18.872Z,87.12
2023-01-08T11:44:45.423Z,87.75
2023-01-08T11:47:21.131Z,87.95
2023-01-08T11:50:02.312Z,88.02
2023-01-08T11:52:41.450Z,87.58
2023-01-08T11:55:17.744Z,86.53
2023-01-08T11:57:53.299Z,86.66
2023-01-08T12:00:31.855Z,87.10
2023-01-08T12:03:03.092Z,87.43
2023-01-08T12:05:35.672Z,87.58
2023-01-08T12:08:05.126Z,86.62
2023-01-08T12:10:58.177Z,87.27
2023-01-08T12:13:39.917Z,87.50
2023-01-08T12:16:09.525Z,87.54
2023-01-08T12:18:42.854Z,87.09
2023-01-08T12:21:13.766Z,87.09
2023-01-08T12:23:54.817Z,86.91
2023-01-08T12:26:44.317Z,86.79
2023-01-08T12:29:10.806Z,86.44
2023-01-08T12:31:37.300Z,86.63
2023-01-08T12:34:07.953Z,86.94
2023-01-08T12:36:40.025Z,87.02
2023-01-08T12:39:11.864Z,86.72
2023-01-08T12:41:39.875Z,86.36
2023-01-08T12:44:11.996Z,86.30
2023-01-08T12:47:02.497Z,86.24
2023-01-08T12:50:01.441Z,86.42
2023-01-08T12:52:37.530Z,86.00
2023-01-08T12:55:17.320Z,85.47
2023-01-08T12:57:57.581Z,85.16
2023-01-08T13:00:33.918Z,85.02
2023-01-08T13:03:01.962Z,84.73
2023-01-08T13:05:35.389Z,84.62
2023-01-08T13:08:06.881Z,84.48
2023-01-08T13:10:49.188Z,84.35
2023-01-08T13:13:45.337Z,84.66
2023-01-08T13:16:11.890Z,84.94
2023-01-08T13:18:38.860Z,84.99
2023-01-08T13:21:05.893Z,85.02
2023-01-08T13:23:37.146Z,85.23
2023-01-08T13:26:05.228Z,85.10
2023-01-08T13:28:38.978Z,85.29
2023-01-08T13:31:20.567Z,85.25
2023-01-08T13:33:48.847Z,85.39
2023-01-08T13:36:16.969Z,85.55
2023-01-08T13:38:44.099Z,85.56
2023-01-08T13:41:30.734Z,85.68
2023-01-08T13:43:59.939Z,85.74
2023-01-08T13:46:26.698Z,86.13
2023-01-08T13:48:56.234Z,86.10
2023-01-08T13:51:28.848Z,86.04
2023-01-08T13:53:55.429Z,86.23
2023-01-08T13:56:22.194Z,86.28
2023-01-08T13:58:54.531Z,86.30
2023-01-08T14:01:22.661Z,86.99
2023-01-08T14:03:49.813Z,86.88
2023-01-08T14:06:19.303Z,87.11
2023-01-08T14:08:50.209Z,87.10
2023-01-08T14:11:17.058Z,87.26
2023-01-08T14:13:44.100Z,87.45
2023-01-08T14:16:13.273Z,87.82
2023-01-08T14:18:43.766Z,87.92
2023-01-08T14:21:10.927Z,88.10
2023-01-08T14:23:40.125Z,88.51
2023-01-08T14:26:08.640Z,88.69
2023-01-08T14:28:35.244Z,89.05
2023-01-08T14:31:01.800Z,89.04
2023-01-08T14:33:33.906Z,89.28
2023-01-08T14:36:01.700Z,88.69
2023-01-08T14:38:28.223Z,88.81
2023-01-08T14:41:02.869Z,89.15
2023-01-08T14:43:33.107Z,89.21
2023-01-08T14:45:59.987Z,89.42
2023-01-08T14:48:34.562Z,89.53
2023-01-08T14:51:16.840Z,89.65
2023-01-08T14:53:46.193Z,89.95
2023-01-08T14:56:14.322Z,90.12
2023-01-08T14:58:42.317Z,90.19
2023-01-08T15:01:20.022Z,90.38
2023-01-08T15:03:51.078Z,91.07
2023-01-08T15:06:28.027Z,90.82
2023-01-08T15:08:58.439Z,90.91
2023-01-08T15:11:31.281Z,91.02
2023-01-08T15:13:58.291Z,91.21
2023-01-08T15:16:32.524Z,91.33
2023-01-08T15:19:12.717Z,91.49
2023-01-08T15:21:39.807Z,91.56
2023-01-08T15:24:07.530Z,91.92
2023-01-08T15:26:34.266Z,91.82
2023-01-08T15:29:02.296Z,91.68
2023-01-08T15:31:30.261Z,91.96
2023-01-08T15:33:57.314Z,91.84
2023-01-08T15:36:23.893Z,92.11
2023-01-08T15:38:53.876Z,92.58
2023-01-08T15:41:40.711Z,92.44
2023-01-08T15:44:07.920Z,93.06
2023-01-08T15:46:34.650Z,93.12
2023-01-08T15:49:01.207Z,93.30
2023-01-08T15:51:30.112Z,93.28
2023-01-08T15:53:56.651Z,93.43
2023-01-08T15:56:23.079Z,93.30
2023-01-08T15:58:49.530Z,93.48
2023-01-08T16:01:16.179Z,93.31
2023-01-08T16:03:42.815Z,93.20
2023-01-08T16:06:09.775Z,93.08
2023-01-08T16:08:36.285Z,93.14
2023-01-08T16:11:02.794Z,93.08
2023-01-08T16:13:29.248Z,93.14
2023-01-08T16:15:55.952Z,93.19
2023-01-08T16:18:22.461Z,93.72
2023-01-08T16:20:48.962Z,93.82
2023-01-08T16:23:16.359Z,93.86
2023-01-08T16:25:42.845Z,94.05
2023-01-08T16:28:09.420Z,94.16
2023-01-08T16:30:36.657Z,94.46
2023-01-08T16:35:29.842Z,94.56
2023-01-08T16:37:56.654Z,94.73
2023-01-08T16:40:23.263Z,94.94
2023-01-08T16:42:49.793Z,95.07
2023-01-08T16:45:16.393Z,94.90
2023-01-08T16:47:42.828Z,95.12
2023-01-08T16:50:10.719Z,95.22
2023-01-08T16:52:38.250Z,95.14
2023-01-08T16:55:05.379Z,95.53
2023-01-08T16:57:31.874Z,95.45
2023-01-08T16:59:58.507Z,95.66
2023-01-08T17:02:25.885Z,95.91
2023-01-08T17:04:52.411Z,95.79
2023-01-08T17:07:19.006Z,95.90
2023-01-08T17:09:45.514Z,95.89
2023-01-08T17:12:12.095Z,96.06
2023-01-08T17:14:38.657Z,96.05
2023-01-08T17:17:05.196Z,96.03
2023-01-08T17:19:31.774Z,96.06
2023-01-08T17:22:01.577Z,96.23
2023-01-08T17:24:28.067Z,95.98
2023-01-08T17:26:57.095Z,96.10
2023-01-08T17:29:23.625Z,96.23
2023-01-08T17:31:50.601Z,96.23
2023-01-08T17:34:17.260Z,96.40
2023-01-08T17:36:43.861Z,96.55
2023-01-08T17:39:11.183Z,96.69
2023-01-08T17:41:56.606Z,96.57
2023-01-08T17:44:23.400Z,96.62
2023-01-08T17:46:49.999Z,96.65
2023-01-08T17:49:16.928Z,96.48
2023-01-08T17:51:44.219Z,96.67
2023-01-08T17:54:11.306Z,96.83
2023-01-08T17:56:44.931Z,96.80
2023-01-08T17:59:16.053Z,96.75
2023-01-08T18:01:45.015Z,96.67
2023-01-08T18:04:12.102Z,96.85
2023-01-08T18:06:40.619Z,96.82
2023-01-08T18:09:07.430Z,97.13
2023-01-08T18:11:33.939Z,96.88
2023-01-08T18:14:01.549Z,96.95
2023-01-08T18:16:28.750Z,97.24
2023-01-08T18:18:59.305Z,97.06
2023-01-08T18:21:28.302Z,97.12
2023-01-08T18:23:55.246Z,97.16
2023-01-08T18:26:22.347Z,97.35
2023-01-08T18:28:48.944Z,97.36
2023-01-08T18:31:15.445Z,97.25
2023-01-08T18:33:42.026Z,97.10
2023-01-08T18:36:10.521Z,97.22
2023-01-08T18:38:38.136Z,97.21
2023-01-08T18:41:05.099Z,97.36
2023-01-08T18:43:32.144Z,97.26
2023-01-08T18:46:00.813Z,97.27
2023-01-08T18:48:30.989Z,97.06
2023-01-08T18:50:57.542Z,97.29
2023-01-08T18:53:24.210Z,97.05
2023-01-08T18:55:50.914Z,97.15
2023-01-08T18:58:17.399Z,97.21
2023-01-08T19:00:44.014Z,97.77
2023-01-08T19:03:12.442Z,97.95
2023-01-08T19:05:42.575Z,98.13
2023-01-08T19:08:09.195Z,98.06
2023-01-08T19:10:36.771Z,98.27
2023-01-08T19:13:03.466Z,98.58
2023-01-08T19:15:30.335Z,98.69
2023-01-08T19:17:56.967Z,98.84
2023-01-08T19:20:23.453Z,98.61
2023-01-08T19:22:51.655Z,98.71
2023-01-08T19:25:18.502Z,99.03
2023-01-08T19:27:45.145Z,98.74
2023-01-08T19:30:12.105Z,98.55
2023-01-08T19:32:39.594Z,98.39
2023-01-08T19:35:06.603Z,98.56
2023-01-08T19:37:33.063Z,98.93
2023-01-08T19:40:02.037Z,98.95
2023-01-08T19:42:47.377Z,99.17
2023-01-08T19:45:13.894Z,99.28
2023-01-08T19:47:41.485Z,99.39
2023-01-08T19:50:09.179Z,99.49
2023-01-08T19:52:35.855Z,99.28
2023-01-08T19:55:02.422Z,99.00
2023-01-08T19:57:28.943Z,99.27
2023-01-08T19:59:55.483Z,99.20
2023-01-08T20:02:22.093Z,99.40
2023-01-08T20:04:50.880Z,99.62
2023-01-08T20:07:17.926Z,99.58
2023-01-08T20:09:44.443Z,99.64
2023-01-08T20:12:11.193Z,99.71
2023-01-08T20:14:38.190Z,99.81
2023-01-08T20:17:09.363Z,99.76
2023-01-08T20:19:37.541Z,100.00
2023-01-08T20:22:04.238Z,99.94
2023-01-08T20:24:45.420Z,99.88
2023-01-08T20:27:12.570Z,99.82
2023-01-08T20:29:39.692Z,99.78
2023-01-08T20:32:09.078Z,99.40
2023-01-08T20:34:36.545Z,99.57
2023-01-08T20:37:07.946Z,99.37
2023-01-08T20:39:38.062Z,99.17
2023-01-08T20:42:05.232Z,99.12
2023-01-08T20:44:39.915Z,98.93
2023-01-08T20:47:15.797Z,98.72
2023-01-08T20:49:42.473Z,98.83
2023-01-08T20:52:09.036Z,98.58
2023-01-08T20:54:35.589Z,98.59
2023-01-08T20:57:02.234Z,98.92
2023-01-08T20:59:29.223Z,99.00
2023-01-08T21:01:57.217Z,98.63
2023-01-08T21:04:23.950Z,98.31
2023-01-08T21:06:50.442Z,98.51
2023-01-08T21:09:17.881Z,98.87
2023-01-08T21:11:44.627Z,99.03
2023-01-08T21:14:11.152Z,99.42
2023-01-08T21:16:39.739Z,99.31
2023-01-08T21:19:06.840Z,98.79
2023-01-08T21:21:34.825Z,98.73
2023-01-08T21:24:05.716Z,98.73
2023-01-08T21:26:33.914Z,98.65
2023-01-08T21:29:03.072Z,98.71
2023-01-08T21:31:30.277Z,99.06
2023-01-08T21:33:57.692Z,99.56
2023-01-08T21:36:24.961Z,99.64
2023-01-08T21:38:58.514Z,99.65
2023-01-08T21:41:44.238Z,99.77
2023-01-08T21:44:34.874Z,99.87
2023-01-08T21:47:01.778Z,99.33
2023-01-08T21:49:28.491Z,99.34
2023-01-08T21:52:13.890Z,99.43
2023-01-08T21:54:40.386Z,99.22
2023-01-08T21:57:07.464Z,99.23
2023-01-08T21:59:34.371Z,99.11
2023-01-08T22:02:01.144Z,99.14
2023-01-08T22:04:28.051Z,99.32
2023-01-08T22:06:54.503Z,99.47
2023-01-08T22:09:21.404Z,99.36
2023-01-08T22:11:47.911Z,99.46
2023-01-08T22:14:14.442Z,99.50
2023-01-08T22:16:40.980Z,99.41
2023-01-08T22:19:07.513Z,99.62
2023-01-08T22:21:34.035Z,99.86
2023-01-08T22:24:00.781Z,99.76
2023-01-08T22:26:27.339Z,99.42
2023-01-08T22:28:53.787Z,99.24
2023-01-08T22:31:20.286Z,99.34
2023-01-08T22:33:46.809Z,99.55
2023-01-08T22:36:13.771Z,99.04
2023-01-08T22:38:40.533Z,99.08
2023-01-08T22:41:13.984Z,99.17
2023-01-08T22:43:40.521Z,99.41
2023-01-08T22:46:07.088Z,99.39
2023-01-08T22:48:33.645Z,99.36
2023-01-08T22:51:03.387Z,99.40
2023-01-08T22:53:29.925Z,99.53
2023-01-08T22:55:56.551Z,99.44
2023-01-08T22:58:23.068Z,99.56
2023-01-08T23:00:49.564Z,99.12
2023-01-08T23:03:16.131Z,99.29
2023-01-08T23:05:42.671Z,99.63
2023-01-08T23:08:09.395Z,99.99
2023-01-08T23:10:36.044Z,100.00
2023-01-08T23:13:02.568Z,100.00
2023-01-08T23:15:29.248Z,100.00
2023-01-08T23:17:55.858Z,100.00
2023-01-08T23:20:24.730Z,100.00
2023-01-08T23:22:51.331Z,100.00
2023-01-08T23:25:17.908Z,100.00
2023-01-08T23:27:44.994Z,100.00
2023-01-08T23:30:11.905Z,100.00
2023-01-08T23:32:38.405Z,100.00
2023-01-08T23:35:05.185Z,100.00
2023-01-08T23:37:31.737Z,100.00
2023-01-08T23:39:58.350Z,100.00
2023-01-08T23:42:24.876Z,100.00
2023-01-08T23:44:51.381Z,100.00
2023-01-08T23:47:17.866Z,100.00
2023-01-08T23:49:44.421Z,100.00
2023-01-08T23:52:10.857Z,100.00
2023-01-08T23:54:37.333Z,100.00
2023-01-08T23:57:06.173Z,100.00
2023-01-08T23:59:32.654Z,100.00
